Time;durP1;ratioP1;P1;durP2;ratioP2;P2;SDS_P1;SDS_P2;PMS_P1;PMS_P2;Temp;Humidity;BMP_temperature;BMP_pressure;BME280_temperature;BME280_humidity;BME280_pressure;Samples;Min_cycle;Max_cycle;Signal;HPM_P1;HPM_P2
2022/08/08 00:01:29;;;;;;;9.00;2.88;;;16.70;84.90;;;;;;6334775;22;20006;-72
2022/08/08 00:04:32;;;;;;;8.63;2.90;;;16.60;84.60;;;;;;6333883;22;20015;-72
2022/08/08 00:07:11;;;;;;;10.20;4.22;;;16.60;84.50;;;;;;6333683;22;20063;-71
2022/08/08 00:10:02;;;;;;;14.85;3.65;;;16.60;84.40;;;;;;6334288;22;19999;-71
2022/08/08 00:12:44;;;;;;;11.98;4.15;;;16.50;84.20;;;;;;6333769;22;19999;-74
2022/08/08 00:15:20;;;;;;;12.57;4.00;;;16.60;84.20;;;;;;6334179;22;19999;-71
2022/08/08 00:17:49;;;;;;;14.82;3.50;;;16.50;84.10;;;;;;6335039;22;20008;-74
2022/08/08 00:20:27;;;;;;;11.27;4.30;;;16.50;84.10;;;;;;6333134;22;19999;-74
2022/08/08 00:22:58;;;;;;;16.77;5.47;;;16.50;84.20;;;;;;6334499;22;20499;-72
2022/08/08 00:25:36;;;;;;;10.10;3.90;;;16.50;84.30;;;;;;6333426;22;19998;-71
2022/08/08 00:28:07;;;;;;;13.63;4.95;;;16.50;84.20;;;;;;6334360;22;20011;-73
2022/08/08 00:30:38;;;;;;;9.98;4.20;;;16.40;83.80;;;;;;6334339;22;19999;-72
2022/08/08 00:33:29;;;;;;;13.00;4.22;;;16.40;83.80;;;;;;6333404;22;20582;-71
2022/08/08 00:36:34;;;;;;;12.52;4.05;;;16.40;83.40;;;;;;6334032;22;20049;-71
2022/08/08 00:39:10;;;;;;;12.38;4.47;;;16.30;83.20;;;;;;6332933;22;20081;-71
2022/08/08 00:41:37;;;;;;;8.13;4.10;;;16.30;83.10;;;;;;6333795;22;20090;-72
2022/08/08 00:44:51;;;;;;;9.15;3.28;;;16.40;83.10;;;;;;6334695;22;20311;-74
2022/08/08 00:47:36;;;;;;;11.45;3.85;;;16.30;82.90;;;;;;6195305;22;20013;-74
2022/08/08 00:50:08;;;;;;;15.77;3.95;;;16.30;82.90;;;;;;6333258;22;19998;-73
2022/08/08 00:53:00;;;;;;;10.00;3.83;;;16.30;82.80;;;;;;6334025;22;20032;-73
2022/08/08 00:55:42;;;;;;;10.23;2.80;;;16.20;83.00;;;;;;6333788;22;19999;-72
2022/08/08 00:58:50;;;;;;;13.05;3.22;;;16.20;83.10;;;;;;6334769;22;19999;-73
2022/08/08 01:01:49;;;;;;;10.25;2.80;;;16.20;83.00;;;;;;6334338;22;20003;-72
2022/08/08 01:04:27;;;;;;;6.10;2.53;;;16.20;83.00;;;;;;6332300;22;20486;-73
2022/08/08 01:07:10;;;;;;;9.30;2.72;;;16.20;83.10;;;;;;6333805;22;20098;-71
2022/08/08 01:10:13;;;;;;;9.80;3.25;;;16.20;83.40;;;;;;6334252;22;20038;-72
2022/08/08 01:13:17;;;;;;;9.40;2.85;;;16.20;83.50;;;;;;6332406;22;20670;-70
2022/08/08 01:16:19;;;;;;;15.00;3.50;;;16.20;83.60;;;;;;6333587;22;20376;-74
2022/08/08 01:19:23;;;;;;;9.32;2.42;;;16.20;83.70;;;;;;6333820;22;19995;-71
2022/08/08 01:22:27;;;;;;;16.75;4.60;;;16.20;83.80;;;;;;6333898;22;20003;-71
2022/08/08 01:25:28;;;;;;;14.88;4.80;;;16.10;83.90;;;;;;6335224;22;20003;-73
2022/08/08 01:28:18;;;;;;;8.05;3.22;;;16.20;84.00;;;;;;6335806;22;20011;-73
2022/08/08 01:31:18;;;;;;;6.95;2.47;;;16.20;84.10;;;;;;6335843;22;20430;-72
2022/08/08 01:34:03;;;;;;;11.18;3.22;;;16.10;84.20;;;;;;6334499;22;20045;-72
2022/08/08 01:37:07;;;;;;;8.70;2.20;;;16.20;84.40;;;;;;6335142;22;19998;-71
2022/08/08 01:39:42;;;;;;;10.05;3.45;;;16.20;84.70;;;;;;6307326;22;20018;-73
2022/08/08 01:42:34;;;;;;;10.52;3.05;;;16.20;85.00;;;;;;6335085;22;19998;-72
2022/08/08 01:45:23;;;;;;;8.23;1.83;;;16.20;85.20;;;;;;6336226;22;20026;-74
2022/08/08 01:48:34;;;;;;;14.02;4.53;;;16.20;85.30;;;;;;6334801;22;20015;-70
2022/08/08 01:51:29;;;;;;;11.90;2.72;;;16.20;85.50;;;;;;6335323;22;20002;-72
2022/08/08 01:54:23;;;;;;;12.48;3.00;;;16.20;85.80;;;;;;6336090;22;19999;-72
2022/08/08 01:57:03;;;;;;;11.38;3.10;;;16.20;85.90;;;;;;6334745;22;20013;-73
2022/08/08 01:59:29;;;;;;;7.05;3.38;;;16.30;86.50;;;;;;6333922;22;20071;-74
2022/08/08 02:01:59;;;;;;;10.05;4.22;;;16.30;85.80;;;;;;6335437;22;20418;-73
2022/08/08 02:05:10;;;;;;;5.78;3.10;;;16.30;85.80;;;;;;6334946;22;20045;-75
2022/08/08 02:07:50;;;;;;;8.63;3.08;;;16.20;85.70;;;;;;6319939;22;20017;-71
2022/08/08 02:11:06;;;;;;;13.48;2.53;;;16.20;85.70;;;;;;6335386;22;20003;-74
2022/08/08 02:13:48;;;;;;;13.40;4.25;;;16.20;85.80;;;;;;6333589;22;20434;-73
2022/08/08 02:16:45;;;;;;;13.40;4.47;;;16.30;85.80;;;;;;6335541;22;19999;-74
2022/08/08 02:19:27;;;;;;;9.10;3.80;;;16.30;85.80;;;;;;6335526;22;20002;-70
2022/08/08 02:22:31;;;;;;;10.57;4.63;;;16.30;85.80;;;;;;6334265;22;20127;-70
2022/08/08 02:25:09;;;;;;;7.90;2.80;;;16.20;85.70;;;;;;6335043;22;19999;-74
2022/08/08 02:27:43;;;;;;;44.53;6.57;;;16.20;85.70;;;;;;6334766;22;20010;-76
2022/08/08 02:30:16;;;;;;;13.10;2.70;;;16.20;86.20;;;;;;6334088;22;20075;-72
2022/08/08 02:33:11;;;;;;;31.45;4.47;;;16.20;86.60;;;;;;6334828;22;19999;-75
2022/08/08 02:35:55;;;;;;;8.52;3.78;;;16.20;86.70;;;;;;6334121;22;20458;-76
2022/08/08 02:38:33;;;;;;;9.98;2.78;;;16.20;86.70;;;;;;6334832;22;20124;-70
2022/08/08 02:41:28;;;;;;;17.80;3.08;;;16.20;86.90;;;;;;6335743;22;20003;-72
2022/08/08 02:44:32;;;;;;;23.00;3.85;;;16.20;87.30;;;;;;6333619;22;20002;-70
2022/08/08 02:47:20;;;;;;;9.80;3.70;;;16.30;87.50;;;;;;6334341;22;20014;-68
2022/08/08 02:50:27;;;;;;;11.13;3.22;;;16.20;87.40;;;;;;6335105;22;20010;-71
2022/08/08 02:53:15;;;;;;;11.85;3.53;;;16.20;87.50;;;;;;6334344;22;20106;-75
2022/08/08 02:56:02;;;;;;;7.20;3.13;;;16.20;87.70;;;;;;6306490;22;20023;-72
2022/08/08 02:59:01;;;;;;;14.65;2.78;;;16.30;88.10;;;;;;6334635;22;20500;-76
2022/08/08 03:01:46;;;;;;;14.20;2.97;;;16.30;88.50;;;;;;6306184;22;19999;-74
2022/08/08 03:04:33;;;;;;;17.53;3.03;;;16.30;88.70;;;;;;6334220;22;20010;-72
2022/08/08 03:07:09;;;;;;;37.35;4.65;;;16.30;88.70;;;;;;6334531;22;20042;-73
2022/08/08 03:09:44;;;;;;;11.07;3.00;;;16.30;88.70;;;;;;6333455;22;19999;-74
2022/08/08 03:12:52;;;;;;;22.50;4.85;;;16.40;88.90;;;;;;6335830;22;20013;-73
2022/08/08 03:15:40;;;;;;;20.50;10.75;;;16.40;89.10;;;;;;6334668;22;20003;-71
2022/08/08 03:18:16;;;;;;;37.92;22.63;;;16.40;89.40;;;;;;6334325;22;20007;-72
2022/08/08 03:20:52;;;;;;;32.63;14.73;;;16.40;89.50;;;;;;6307293;22;20002;-74
2022/08/08 03:23:21;;;;;;;17.85;8.07;;;16.40;89.80;;;;;;6333999;22;20033;-74
2022/08/08 03:25:49;;;;;;;12.40;5.60;;;16.40;89.60;;;;;;6334337;22;19995;-73
2022/08/08 03:28:29;;;;;;;8.55;3.75;;;16.40;89.20;;;;;;6334609;22;20010;-73
2022/08/08 03:30:56;;;;;;;14.73;5.30;;;16.40;88.90;;;;;;6333441;22;19995;-72
2022/08/08 03:33:23;;;;;;;9.65;3.65;;;16.30;88.60;;;;;;6334925;22;20326;-74
2022/08/08 03:35:51;;;;;;;8.18;2.58;;;16.40;88.50;;;;;;6333858;22;20022;-74
2022/08/08 03:38:22;;;;;;;8.88;2.00;;;16.30;88.30;;;;;;6333641;22;20006;-73
2022/08/08 03:40:50;;;;;;;14.60;3.05;;;16.30;88.20;;;;;;6333226;22;20007;-72
2022/08/08 03:43:17;;;;;;;38.88;4.22;;;16.30;88.10;;;;;;6333141;22;20223;-71
2022/08/08 03:45:44;;;;;;;14.77;3.78;;;16.30;88.20;;;;;;6334706;22;20078;-72
2022/08/08 03:48:10;;;;;;;20.52;6.57;;;16.30;88.30;;;;;;6333412;22;20010;-72
2022/08/08 03:50:47;;;;;;;25.27;11.75;;;16.30;88.70;;;;;;6306778;22;20077;-72
2022/08/08 03:53:18;;;;;;;34.00;12.50;;;16.30;89.20;;;;;;6333452;22;20430;-72
2022/08/08 03:55:48;;;;;;;18.70;8.13;;;16.30;89.60;;;;;;6334413;22;20003;-74
2022/08/08 03:58:25;;;;;;;13.43;6.05;;;16.40;89.50;;;;;;6334585;22;20027;-74
2022/08/08 04:00:56;;;;;;;12.27;5.18;;;16.30;89.10;;;;;;6333457;22;20064;-73
2022/08/08 04:03:23;;;;;;;16.25;4.22;;;16.30;88.90;;;;;;6334208;22;20068;-71
2022/08/08 04:05:50;;;;;;;11.05;2.65;;;16.30;89.30;;;;;;6305154;22;20002;-71
2022/08/08 04:08:20;;;;;;;10.25;3.90;;;16.30;88.50;;;;;;6335039;22;20373;-74
2022/08/08 04:10:49;;;;;;;12.40;3.13;;;16.30;88.50;;;;;;6333710;22;20009;-75
2022/08/08 04:13:17;;;;;;;8.48;3.17;;;16.20;88.30;;;;;;6334228;22;20417;-74
2022/08/08 04:15:45;;;;;;;22.52;3.00;;;16.20;88.10;;;;;;6333932;22;20002;-72
2022/08/08 04:18:11;;;;;;;8.48;2.78;;;16.30;88.20;;;;;;6333826;22;20426;-73
2022/08/08 04:20:38;;;;;;;10.52;3.30;;;16.30;88.20;;;;;;6334113;22;20073;-71
2022/08/08 04:23:05;;;;;;;11.48;2.60;;;16.20;88.00;;;;;;6332824;22;20415;-73
2022/08/08 04:25:32;;;;;;;11.15;4.43;;;16.20;88.00;;;;;;6306063;22;20007;-73
2022/08/08 04:27:59;;;;;;;28.80;8.70;;;16.30;88.00;;;;;;6333216;22;20010;-72
2022/08/08 04:30:25;;;;;;;28.23;14.38;;;16.20;87.90;;;;;;6333914;22;19999;-72
2022/08/08 04:32:52;;;;;;;29.02;15.15;;;16.20;88.10;;;;;;6333355;22;20002;-74
2022/08/08 04:35:19;;;;;;;18.92;9.32;;;16.30;88.10;;;;;;6333358;22;19998;-72
2022/08/08 04:37:46;;;;;;;14.88;5.65;;;16.30;87.90;;;;;;6334185;22;20002;-73
2022/08/08 04:40:13;;;;;;;13.90;4.20;;;16.20;87.80;;;;;;6332551;22;20025;-73
2022/08/08 04:42:39;;;;;;;10.02;3.65;;;16.20;87.80;;;;;;6333832;22;20006;-71
2022/08/08 04:45:06;;;;;;;7.95;2.88;;;16.20;87.70;;;;;;6332896;22;19999;-72
2022/08/08 04:47:33;;;;;;;11.25;3.53;;;16.20;87.70;;;;;;6333788;22;20049;-70
2022/08/08 04:49:59;;;;;;;20.42;3.20;;;16.20;87.70;;;;;;6333324;22;20006;-74
2022/08/08 04:52:26;;;;;;;12.23;3.05;;;16.20;87.60;;;;;;6333491;22;19999;-70
2022/08/08 04:54:52;;;;;;;8.48;3.92;;;16.20;87.50;;;;;;6334082;22;20006;-74
2022/08/08 04:57:19;;;;;;;11.43;3.80;;;16.20;87.50;;;;;;6334318;22;20009;-74
2022/08/08 04:59:46;;;;;;;9.57;2.75;;;16.20;87.50;;;;;;6336276;22;20013;-75
2022/08/08 05:02:12;;;;;;;10.43;2.45;;;16.20;87.60;;;;;;6334686;22;20002;-73
2022/08/08 05:04:39;;;;;;;8.85;2.65;;;16.10;87.50;;;;;;6334828;22;20022;-74
2022/08/08 05:07:06;;;;;;;14.27;5.35;;;16.20;87.50;;;;;;6334959;22;20007;-72
2022/08/08 05:09:32;;;;;;;5.57;2.80;;;16.20;87.40;;;;;;6335800;22;19999;-73
2022/08/08 05:11:59;;;;;;;15.35;4.68;;;16.20;87.30;;;;;;6335629;22;20006;-70
2022/08/08 05:14:25;;;;;;;12.07;3.05;;;16.20;87.30;;;;;;6335093;22;19997;-74
2022/08/08 05:16:52;;;;;;;10.45;3.05;;;16.20;87.30;;;;;;6335213;22;20430;-71
2022/08/08 05:19:19;;;;;;;11.50;4.03;;;16.20;87.30;;;;;;6334225;22;20002;-70
2022/08/08 05:21:45;;;;;;;8.23;3.42;;;16.10;87.20;;;;;;6334928;22;20003;-72
2022/08/08 05:24:12;;;;;;;21.52;2.72;;;16.10;87.30;;;;;;6333610;22;20071;-73
2022/08/08 05:26:45;;;;;;;14.45;2.80;;;16.20;87.40;;;;;;6335140;22;20011;-70
2022/08/08 05:29:12;;;;;;;26.67;17.60;;;16.10;87.60;;;;;;6335275;22;20022;-73
2022/08/08 05:31:39;;;;;;;28.20;15.18;;;16.20;88.00;;;;;;6334801;22;19995;-72
2022/08/08 05:34:23;;;;;;;20.83;11.95;;;16.20;88.00;;;;;;6336020;22;19994;-71
2022/08/08 05:36:52;;;;;;;16.02;7.43;;;16.10;87.90;;;;;;6333718;22;20601;-70
2022/08/08 05:39:22;;;;;;;20.25;4.63;;;16.20;88.00;;;;;;6335694;22;19995;-71
2022/08/08 05:41:51;;;;;;;7.05;2.95;;;16.10;87.90;;;;;;6335217;22;20043;-71
2022/08/08 05:44:28;;;;;;;15.95;6.85;;;16.10;87.90;;;;;;6336667;22;20002;-73
2022/08/08 05:46:57;;;;;;;16.13;5.78;;;16.10;87.80;;;;;;6335034;22;20010;-72
2022/08/08 05:49:24;;;;;;;14.13;5.18;;;16.10;87.70;;;;;;6334257;22;20096;-72
2022/08/08 05:51:50;;;;;;;8.38;2.80;;;16.10;87.70;;;;;;6335068;22;20044;-73
2022/08/08 05:54:18;;;;;;;10.70;4.03;;;16.20;87.60;;;;;;6333693;22;20007;-71
2022/08/08 05:56:45;;;;;;;9.43;3.08;;;16.10;87.40;;;;;;6334731;22;19991;-74
2022/08/08 05:59:22;;;;;;;11.00;3.90;;;16.20;87.30;;;;;;6332977;22;20468;-69
2022/08/08 06:01:55;;;;;;;12.18;3.45;;;16.10;87.10;;;;;;6334608;22;20003;-72
2022/08/08 06:04:26;;;;;;;8.27;3.60;;;16.20;87.10;;;;;;6335904;22;20030;-73
2022/08/08 06:06:58;;;;;;;10.68;4.13;;;16.10;87.00;;;;;;6333062;22;20007;-70
2022/08/08 06:09:31;;;;;;;12.30;2.72;;;16.20;86.90;;;;;;6335390;22;20361;-70
2022/08/08 06:12:02;;;;;;;13.00;2.88;;;16.20;86.90;;;;;;6333952;22;20066;-74
2022/08/08 06:14:30;;;;;;;11.15;3.22;;;16.20;86.80;;;;;;6336326;22;20293;-72
2022/08/08 06:17:02;;;;;;;12.85;3.92;;;16.20;86.70;;;;;;6334980;22;20003;-71
2022/08/08 06:19:29;;;;;;;16.55;4.95;;;16.20;86.60;;;;;;6334261;22;20022;-73
2022/08/08 06:21:56;;;;;;;13.35;5.75;;;16.20;86.50;;;;;;6335604;22;20044;-74
2022/08/08 06:24:22;;;;;;;12.52;3.97;;;16.20;86.30;;;;;;6334543;22;20030;-70
2022/08/08 06:27:09;;;;;;;11.07;3.95;;;16.20;86.30;;;;;;6335542;22;20021;-70
2022/08/08 06:29:54;;;;;;;16.35;3.70;;;16.10;86.10;;;;;;6334923;22;20085;-73
2022/08/08 06:32:28;;;;;;;9.30;3.03;;;16.20;86.10;;;;;;6307012;22;20440;-71
2022/08/08 06:34:57;;;;;;;10.30;3.08;;;16.20;86.10;;;;;;6335507;22;20010;-76
2022/08/08 06:37:27;;;;;;;14.80;2.80;;;16.20;86.00;;;;;;6334394;22;20043;-75
2022/08/08 06:39:56;;;;;;;10.25;3.92;;;16.20;85.90;;;;;;6335871;22;20074;-70
2022/08/08 06:42:28;;;;;;;11.18;2.60;;;16.20;85.70;;;;;;6333843;22;20009;-73
2022/08/08 06:44:54;;;;;;;13.52;4.45;;;16.20;85.60;;;;;;6335387;22;20070;-72
2022/08/08 06:47:21;;;;;;;7.90;2.97;;;16.10;86.10;;;;;;6334020;22;20082;-72
2022/08/08 06:49:48;;;;;;;16.27;3.80;;;16.10;85.40;;;;;;6333954;22;20192;-71
2022/08/08 06:52:16;;;;;;;13.18;3.50;;;16.20;85.30;;;;;;6335206;22;20044;-70
2022/08/08 06:54:43;;;;;;;8.02;2.38;;;16.20;85.30;;;;;;6333985;22;20023;-71
2022/08/08 06:57:10;;;;;;;8.65;2.80;;;16.10;85.30;;;;;;6334949;22;19998;-69
2022/08/08 06:59:36;;;;;;;10.80;2.72;;;16.10;85.30;;;;;;6334232;22;20003;-73
2022/08/08 07:02:04;;;;;;;10.25;2.08;;;16.10;85.40;;;;;;6334686;22;20003;-71
2022/08/08 07:04:58;;;;;;;11.60;1.95;;;16.10;85.50;;;;;;6334439;22;20011;-71
2022/08/08 07:07:56;;;;;;;10.35;2.58;;;16.20;85.70;;;;;;6333056;22;20128;-70
2022/08/08 07:10:24;;;;;;;8.15;2.63;;;16.10;85.70;;;;;;6327787;22;20071;-77
2022/08/08 07:13:05;;;;;;;5.22;1.77;;;16.20;85.80;;;;;;6334315;22;20006;-73
2022/08/08 07:15:52;;;;;;;9.02;2.13;;;16.20;85.80;;;;;;6334294;22;20113;-73
2022/08/08 07:18:38;;;;;;;9.15;2.70;;;16.20;85.80;;;;;;6335028;22;20345;-75
2022/08/08 07:21:07;;;;;;;9.30;2.00;;;16.20;85.80;;;;;;6333043;22;19998;-76
2022/08/08 07:24:07;;;;;;;17.70;3.83;;;16.20;85.90;;;;;;6335011;22;19994;-73
2022/08/08 07:26:37;;;;;;;9.10;2.85;;;16.30;86.00;;;;;;6335183;22;20005;-76
2022/08/08 07:29:04;;;;;;;6.78;2.33;;;16.30;86.10;;;;;;6333849;22;20003;-73
2022/08/08 07:31:31;;;;;;;8.30;2.38;;;16.30;86.10;;;;;;6334424;22;19999;-72
2022/08/08 07:33:58;;;;;;;9.85;2.90;;;16.40;86.00;;;;;;6334607;22;20026;-76
2022/08/08 07:36:26;;;;;;;14.50;3.13;;;16.40;85.80;;;;;;6334601;22;19999;-74
2022/08/08 07:38:53;;;;;;;9.15;2.38;;;16.40;85.70;;;;;;6333824;22;20031;-73
2022/08/08 07:41:22;;;;;;;8.32;2.15;;;16.40;85.60;;;;;;6334970;22;20434;-76
2022/08/08 07:43:51;;;;;;;11.60;2.83;;;16.50;85.60;;;;;;6334476;22;20009;-74
2022/08/08 07:46:18;;;;;;;12.90;3.22;;;16.50;85.50;;;;;;6333509;22;20002;-71
2022/08/08 07:48:44;;;;;;;8.57;4.30;;;16.50;85.30;;;;;;6334648;22;20003;-75
2022/08/08 07:51:11;;;;;;;11.80;3.17;;;16.50;85.10;;;;;;6333332;22;20009;-72
2022/08/08 07:53:53;;;;;;;8.38;2.88;;;16.60;85.70;;;;;;6334228;22;20002;-75
2022/08/08 07:56:20;;;;;;;7.05;2.28;;;16.60;85.00;;;;;;6333928;22;19998;-69
2022/08/08 07:58:49;;;;;;;6.97;2.38;;;16.60;84.80;;;;;;6333773;22;19991;-70
2022/08/08 08:01:25;;;;;;;9.13;2.08;;;16.70;84.90;;;;;;6334876;22;20087;-77
2022/08/08 08:03:52;;;;;;;;;;;16.70;84.90;;;;;;6334374;22;20336;-74
2022/08/08 08:06:20;;;;;;;12.85;3.33;;;16.70;84.50;;;;;;6334995;22;20340;-74
2022/08/08 08:09:12;;;;;;;7.28;1.98;;;16.80;84.40;;;;;;6332923;22;20446;-75
2022/08/08 08:11:44;;;;;;;6.00;2.03;;;16.80;84.20;;;;;;6334696;22;20010;-72
2022/08/08 08:14:22;;;;;;;8.40;3.60;;;16.80;83.90;;;;;;6334127;22;20084;-76
2022/08/08 08:16:50;;;;;;;9.38;2.85;;;16.90;83.70;;;;;;6332942;22;20003;-74
2022/08/08 08:19:18;;;;;;;10.35;3.17;;;16.90;83.50;;;;;;6334697;22;19999;-75
2022/08/08 08:21:47;;;;;;;5.97;2.17;;;16.90;83.20;;;;;;6333785;22;19999;-72
2022/08/08 08:24:14;;;;;;;11.25;3.50;;;17.00;82.90;;;;;;6334829;22;19998;-69
2022/08/08 08:26:41;;;;;;;11.18;3.33;;;17.00;82.80;;;;;;6333855;22;20021;-73
2022/08/08 08:29:08;;;;;;;8.30;2.20;;;17.00;82.60;;;;;;6334597;22;20003;-72
2022/08/08 08:31:35;;;;;;;12.00;3.00;;;17.10;82.50;;;;;;6333750;22;19999;-76
2022/08/08 08:34:01;;;;;;;11.68;3.38;;;17.10;82.40;;;;;;6333311;22;20025;-71
2022/08/08 08:36:28;;;;;;;8.25;2.42;;;17.20;82.40;;;;;;6334311;22;19999;-75
2022/08/08 08:38:55;;;;;;;9.32;2.67;;;17.20;82.30;;;;;;6333309;22;20430;-69
2022/08/08 08:41:22;;;;;;;9.73;2.53;;;17.20;82.40;;;;;;6335703;22;20013;-69
2022/08/08 08:43:50;;;;;;;7.57;2.47;;;17.20;82.20;;;;;;6333521;22;20007;-77
2022/08/08 08:46:16;;;;;;;6.53;2.22;;;17.30;82.00;;;;;;6306372;22;20368;-74
2022/08/08 08:48:43;;;;;;;6.35;3.10;;;17.30;82.00;;;;;;6334920;22;20007;-73
2022/08/08 08:51:16;;;;;;;8.45;3.55;;;17.40;82.10;;;;;;6332919;22;19999;-75
2022/08/08 08:53:51;;;;;;;8.50;2.42;;;17.40;81.90;;;;;;6334027;22;20034;-76
2022/08/08 08:56:19;;;;;;;10.43;4.65;;;17.50;81.90;;;;;;6333237;22;19995;-70
2022/08/08 08:58:50;;;;;;;6.70;3.10;;;17.50;82.00;;;;;;6334803;22;20090;-72
2022/08/08 09:01:19;;;;;;;11.60;3.28;;;17.60;81.90;;;;;;6333039;22;20009;-74
2022/08/08 09:03:49;;;;;;;4.72;1.80;;;17.60;81.90;;;;;;6333750;22;20013;-71
2022/08/08 09:06:24;;;;;;;10.25;3.35;;;17.70;81.80;;;;;;6334479;22;20418;-76
2022/08/08 09:08:59;;;;;;;6.13;3.85;;;17.70;81.70;;;;;;6332441;22;20021;-73
2022/08/08 09:11:29;;;;;;;8.13;2.90;;;17.80;81.40;;;;;;6334147;22;20045;-77
2022/08/08 09:13:56;;;;;;;5.43;2.45;;;17.80;80.80;;;;;;6332823;22;20399;-76
2022/08/08 09:16:22;;;;;;;10.02;2.83;;;17.80;80.50;;;;;;6306580;22;20007;-73
2022/08/08 09:18:49;;;;;;;8.88;2.83;;;17.80;80.20;;;;;;6333457;22;20003;-72
2022/08/08 09:21:16;;;;;;;11.23;2.90;;;17.90;80.20;;;;;;6333206;22;19995;-74
2022/08/08 09:23:43;;;;;;;14.88;4.00;;;17.90;80.10;;;;;;6334573;22;19994;-77
2022/08/08 09:26:29;;;;;;;5.93;1.77;;;18.00;79.90;;;;;;6333052;22;20295;-76
2022/08/08 09:28:56;;;;;;;;;;;18.00;79.70;;;;;;6335443;22;20078;-76
2022/08/08 09:31:52;;;;;;;5.65;2.15;;;18.10;79.30;;;;;;6332272;22;19903;-77
2022/08/08 09:34:20;;;;;;;8.43;3.03;;;18.10;79.10;;;;;;6319998;22;20003;-77
2022/08/08 09:36:47;;;;;;;9.43;4.00;;;18.20;78.90;;;;;;6333775;22;20003;-77
2022/08/08 09:39:22;;;;;;;7.15;2.67;;;18.20;78.40;;;;;;6332794;22;20022;-73
2022/08/08 09:42:01;;;;;;;7.90;2.53;;;18.30;78.20;;;;;;6333597;22;20003;-73
2022/08/08 09:44:58;;;;;;;4.10;2.10;;;18.30;78.00;;;;;;6334753;22;20003;-70
2022/08/08 09:47:29;;;;;;;7.57;2.53;;;18.40;77.80;;;;;;6334473;22;20010;-77
2022/08/08 09:49:58;;;;;;;7.60;2.83;;;18.40;77.60;;;;;;6335641;22;20011;-75
2022/08/08 09:52:29;;;;;;;6.28;2.30;;;18.40;77.40;;;;;;6334492;22;20026;-74
2022/08/08 09:54:55;;;;;;;12.13;2.28;;;18.50;77.40;;;;;;6335601;22;20445;-72
2022/08/08 09:57:34;;;;;;;11.15;3.10;;;18.60;77.90;;;;;;6334574;22;20369;-77
2022/08/08 10:00:03;;;;;;;17.77;3.25;;;18.60;76.80;;;;;;6335643;22;20014;-76
2022/08/08 10:02:37;;;;;;;6.57;2.47;;;18.70;77.00;;;;;;6335379;22;20002;-74
2022/08/08 10:05:20;;;;;;;5.60;2.55;;;18.70;77.10;;;;;;6333736;22;20022;-73
2022/08/08 10:07:54;;;;;;;6.22;2.63;;;18.80;77.00;;;;;;6335802;22;20011;-78
2022/08/08 10:10:29;;;;;;;8.52;2.47;;;18.90;76.80;;;;;;6334571;22;20028;-75
2022/08/08 10:12:56;;;;;;;;;;;19.00;76.50;;;;;;6335732;22;20003;-77
2022/08/08 10:15:24;;;;;;;11.55;3.80;;;19.00;75.90;;;;;;6335067;22;19907;-77
2022/08/08 10:17:52;;;;;;;7.63;2.53;;;19.10;75.20;;;;;;6334183;22;20006;-80
2022/08/08 10:20:22;;;;;;;6.50;2.63;;;19.10;74.40;;;;;;6335416;22;20326;-70
2022/08/08 10:23:05;;;;;;;8.27;3.20;;;19.10;74.00;;;;;;6334295;22;20044;-72
2022/08/08 10:25:36;;;;;;;6.13;2.33;;;19.10;73.30;;;;;;6335108;22;20481;-76
2022/08/08 10:28:03;;;;;;;6.55;1.70;;;19.20;72.90;;;;;;6334522;22;20059;-76
2022/08/08 10:30:30;;;;;;;10.18;3.33;;;19.20;72.90;;;;;;6335306;22;20330;-76
2022/08/08 10:32:58;;;;;;;7.32;2.60;;;19.20;72.70;;;;;;6335304;22;20002;-70
2022/08/08 10:35:31;;;;;;;8.68;2.88;;;19.20;72.50;;;;;;6333871;22;20001;-75
2022/08/08 10:37:59;;;;;;;12.82;2.60;;;19.20;72.20;;;;;;6335166;22;20006;-73
2022/08/08 10:40:28;;;;;;;16.30;2.28;;;19.20;72.60;;;;;;6334081;22;19995;-70
2022/08/08 10:43:03;;;;;;;12.18;3.10;;;19.20;72.10;;;;;;6334943;22;20123;-71
2022/08/08 10:45:40;;;;;;;6.95;2.05;;;19.20;71.00;;;;;;6334615;22;20125;-73
2022/08/08 10:48:11;;;;;;;5.00;1.58;;;19.30;70.80;;;;;;6334041;22;20006;-76
2022/08/08 10:50:39;;;;;;;5.97;3.67;;;19.30;70.50;;;;;;6334627;22;20426;-75
2022/08/08 10:53:08;;;;;;;8.82;3.13;;;19.30;70.50;;;;;;6333420;22;20056;-75
2022/08/08 10:55:41;;;;;;;9.13;2.88;;;19.30;70.60;;;;;;6335228;22;20011;-70
2022/08/08 10:58:09;;;;;;;5.10;2.10;;;19.30;70.60;;;;;;6334382;22;19998;-74
2022/08/08 11:00:42;;;;;;;5.38;2.10;;;19.30;70.30;;;;;;6335146;22;19999;-73
2022/08/08 11:03:14;;;;;;;8.65;3.45;;;19.40;69.90;;;;;;6335154;22;20036;-69
2022/08/08 11:05:52;;;;;;;6.85;2.05;;;19.40;69.80;;;;;;6333036;22;20089;-73
2022/08/08 11:08:21;;;;;;;8.65;3.63;;;19.40;69.70;;;;;;6334714;22;20075;-70
2022/08/08 11:10:48;;;;;;;5.75;1.50;;;19.40;69.30;;;;;;6333708;22;20002;-69
2022/08/08 11:13:20;;;;;;;5.20;1.70;;;19.50;69.30;;;;;;6335054;22;20009;-78
2022/08/08 11:15:48;;;;;;;8.50;2.20;;;19.40;68.90;;;;;;6334151;22;20003;-77
2022/08/08 11:18:16;;;;;;;6.07;1.73;;;19.50;69.00;;;;;;6333893;22;19998;-71
2022/08/08 11:20:43;;;;;;;4.47;2.15;;;19.50;68.80;;;;;;6335010;22;20364;-72
2022/08/08 11:23:10;;;;;;;13.65;2.65;;;19.60;68.70;;;;;;6333980;22;20056;-74
2022/08/08 11:25:38;;;;;;;13.85;3.15;;;19.60;69.00;;;;;;6307541;22;20441;-71
2022/08/08 11:28:08;;;;;;;5.22;1.92;;;19.70;69.30;;;;;;6333485;22;20103;-75
2022/08/08 11:30:35;;;;;;;4.05;1.50;;;19.70;69.10;;;;;;6334759;22;19999;-76
2022/08/08 11:33:04;;;;;;;6.53;1.88;;;19.70;68.80;;;;;;6334654;22;19995;-79
2022/08/08 11:35:31;;;;;;;7.90;2.38;;;19.70;68.70;;;;;;6334615;22;20006;-69
2022/08/08 11:37:57;;;;;;;11.00;2.50;;;19.80;68.50;;;;;;6335231;22;20001;-70
2022/08/08 11:40:24;;;;;;;6.05;1.70;;;19.80;68.30;;;;;;6332909;22;20003;-78
2022/08/08 11:42:51;;;;;;;7.50;1.60;;;19.80;68.10;;;;;;6335176;22;19999;-77
2022/08/08 11:45:21;;;;;;;11.13;2.22;;;19.90;67.90;;;;;;6333488;22;20086;-72
2022/08/08 11:47:48;;;;;;;7.70;2.03;;;19.90;67.40;;;;;;6334670;22;20491;-69
2022/08/08 11:50:18;;;;;;;5.10;1.65;;;19.90;67.10;;;;;;6333310;22;20322;-76
2022/08/08 11:52:46;;;;;;;4.40;1.63;;;19.90;67.00;;;;;;6334318;22;20022;-77
2022/08/08 11:55:26;;;;;;;4.70;1.48;;;19.90;66.90;;;;;;6334416;22;20003;-75
2022/08/08 11:58:13;;;;;;;8.73;2.03;;;20.00;66.70;;;;;;6333134;22;19999;-78
2022/08/08 12:00:50;;;;;;;6.93;2.08;;;20.00;66.70;;;;;;6334783;22;20006;-76
2022/08/08 12:03:20;;;;;;;5.22;1.58;;;20.10;66.70;;;;;;6333864;22;20006;-75
2022/08/08 12:05:47;;;;;;;7.05;2.50;;;20.10;66.60;;;;;;6333345;22;20010;-73
2022/08/08 12:08:14;;;;;;;5.05;1.63;;;20.20;66.90;;;;;;6334392;22;20017;-78
2022/08/08 12:10:49;;;;;;;13.32;3.85;;;20.10;67.00;;;;;;6333809;22;20003;-78
2022/08/08 12:13:22;;;;;;;8.50;2.13;;;20.20;67.10;;;;;;6334810;22;19999;-79
2022/08/08 12:15:49;;;;;;;4.32;1.80;;;20.20;67.20;;;;;;6332901;22;20078;-78
2022/08/08 12:18:26;;;;;;;8.10;1.88;;;20.30;66.80;;;;;;6334654;22;20049;-74
2022/08/08 12:20:55;;;;;;;5.75;2.63;;;20.30;66.70;;;;;;6334128;22;20003;-77
2022/08/08 12:23:31;;;;;;;5.32;2.45;;;20.30;66.90;;;;;;6332905;22;20010;-73
2022/08/08 12:26:20;;;;;;;6.95;1.77;;;20.30;67.80;;;;;;6334791;22;20086;-72
2022/08/08 12:28:56;;;;;;;8.55;3.20;;;20.30;67.40;;;;;;6332549;22;20011;-78
2022/08/08 12:31:33;;;;;;;7.60;3.38;;;20.30;67.60;;;;;;6334193;22;20002;-69
2022/08/08 12:34:01;;;;;;;7.15;1.60;;;20.40;67.40;;;;;;6333938;22;19999;-78
2022/08/08 12:36:42;;;;;;;6.22;1.75;;;20.40;67.20;;;;;;6333587;22;19999;-75
2022/08/08 12:39:09;;;;;;;7.93;2.25;;;20.50;67.30;;;;;;6306494;22;20013;-73
2022/08/08 12:41:36;;;;;;;10.68;2.72;;;20.50;67.10;;;;;;6304623;22;20009;-78
2022/08/08 12:44:12;;;;;;;7.80;2.25;;;20.50;67.30;;;;;;6334963;22;20003;-75
2022/08/08 12:46:38;;;;;;;6.10;2.10;;;20.50;67.20;;;;;;6333423;22;19999;-76
2022/08/08 12:49:05;;;;;;;7.03;2.20;;;20.50;66.90;;;;;;6333692;22;20422;-78
2022/08/08 12:51:40;;;;;;;6.82;1.88;;;20.50;66.60;;;;;;6334722;22;20450;-77
2022/08/08 12:54:08;;;;;;;8.23;2.13;;;20.50;66.80;;;;;;6332776;22;20448;-75
2022/08/08 12:56:39;;;;;;;7.38;1.90;;;20.50;66.80;;;;;;6333792;22;20023;-76
2022/08/08 12:59:25;;;;;;;8.95;2.50;;;20.50;66.90;;;;;;6333849;22;20498;-77
2022/08/08 13:01:56;;;;;;;8.85;2.60;;;20.60;66.70;;;;;;6334186;22;20449;-78
2022/08/08 13:04:27;;;;;;;7.80;2.45;;;20.60;66.70;;;;;;6334333;22;20018;-74
2022/08/08 13:06:54;;;;;;;8.30;2.60;;;20.60;66.60;;;;;;6332134;22;20013;-71
2022/08/08 13:09:30;;;;;;;7.72;2.10;;;20.60;66.50;;;;;;6334644;22;19995;-78
2022/08/08 13:11:56;;;;;;;6.10;2.72;;;20.60;66.50;;;;;;6333036;22;19999;-73
2022/08/08 13:14:37;;;;;;;7.13;2.03;;;20.60;66.40;;;;;;6334702;22;20434;-73
2022/08/08 13:17:05;;;;;;;5.35;2.83;;;20.50;66.20;;;;;;6334034;22;20005;-75
2022/08/08 13:19:32;;;;;;;9.95;3.00;;;20.60;66.40;;;;;;6334736;22;19991;-72
2022/08/08 13:21:58;;;;;;;9.40;2.08;;;20.50;66.10;;;;;;6307741;22;20117;-74